sensor_id;sensor_type;location;lat;lon;timestamp;pressure;altitude;pressure_sealevel;temperature
14666;BMP280;7420;53.574;10.040;2022-10-31T00:02:02;101892.31;;;12.64
14666;BMP280;7420;53.574;10.040;2022-10-31T00:04:27;101890.47;;;12.65
14666;BMP280;7420;53.574;10.040;2022-10-31T00:06:52;101898.78;;;12.56
14666;BMP280;7420;53.574;10.040;2022-10-31T00:09:18;101899.63;;;12.56
14666;BMP280;7420;53.574;10.040;2022-10-31T00:11:43;101905.59;;;12.58
14666;BMP280;7420;53.574;10.040;2022-10-31T00:14:08;101905.59;;;12.58
14666;BMP280;7420;53.574;10.040;2022-10-31T00:16:34;101904.75;;;12.57
14666;BMP280;7420;53.574;10.040;2022-10-31T00:19:02;101906.59;;;12.51
14666;BMP280;7420;53.574;10.040;2022-10-31T00:21:28;101900.03;;;12.53
14666;BMP280;7420;53.574;10.040;2022-10-31T00:23:53;101905.84;;;12.63
14666;BMP280;7420;53.574;10.040;2022-10-31T00:26:19;101901.28;;;12.57
14666;BMP280;7420;53.574;10.040;2022-10-31T00:28:45;101908.22;;;12.52
14666;BMP280;7420;53.574;10.040;2022-10-31T00:31:11;101894.50;;;12.82
14666;BMP280;7420;53.574;10.040;2022-10-31T00:33:38;101910.03;;;12.99
14666;BMP280;7420;53.574;10.040;2022-10-31T00:36:05;101906.22;;;13.15
14666;BMP280;7420;53.574;10.040;2022-10-31T00:38:31;101913.28;;;13.22
14666;BMP280;7420;53.574;10.040;2022-10-31T00:40:56;101910.47;;;13.37
14666;BMP280;7420;53.574;10.040;2022-10-31T00:43:22;101905.59;;;13.53
14666;BMP280;7420;53.574;10.040;2022-10-31T00:45:47;101912.63;;;13.61
14666;BMP280;7420;53.574;10.040;2022-10-31T00:48:12;101898.22;;;13.62
14666;BMP280;7420;53.574;10.040;2022-10-31T00:50:38;101899.09;;;13.69
14666;BMP280;7420;53.574;10.040;2022-10-31T00:53:03;101891.88;;;13.63
14666;BMP280;7420;53.574;10.040;2022-10-31T00:55:29;101884.25;;;13.60
14666;BMP280;7420;53.574;10.040;2022-10-31T00:57:54;101883.84;;;13.56
14666;BMP280;7420;53.574;10.040;2022-10-31T01:00:20;101898.22;;;13.62
14666;BMP280;7420;53.574;10.040;2022-10-31T01:02:45;101901.94;;;13.61
14666;BMP280;7420;53.574;10.040;2022-10-31T01:05:10;101919.22;;;13.65
14666;BMP280;7420;53.574;10.040;2022-10-31T01:07:37;101911.81;;;13.67
14666;BMP280;7420;53.574;10.040;2022-10-31T01:10:03;101919.22;;;13.65
14666;BMP280;7420;53.574;10.040;2022-10-31T01:12:29;101919.22;;;13.65
14666;BMP280;7420;53.574;10.040;2022-10-31T01:14:54;101922.91;;;13.64
14666;BMP280;7420;53.574;10.040;2022-10-31T01:17:19;101921.25;;;13.63
14666;BMP280;7420;53.574;10.040;2022-10-31T01:19:45;101930.91;;;13.64
14666;BMP280;7420;53.574;10.040;2022-10-31T01:22:10;101934.44;;;13.64
14666;BMP280;7420;53.574;10.040;2022-10-31T01:24:35;101937.50;;;13.68
14666;BMP280;7420;53.574;10.040;2022-10-31T01:27:01;101936.72;;;13.74
14666;BMP280;7420;53.574;10.040;2022-10-31T01:29:26;101940.00;;;13.76
14666;BMP280;7420;53.574;10.040;2022-10-31T01:31:52;101935.69;;;13.75
14666;BMP280;7420;53.574;10.040;2022-10-31T01:34:17;101943.72;;;13.75
14666;BMP280;7420;53.574;10.040;2022-10-31T01:36:44;101945.75;;;13.73
14666;BMP280;7420;53.574;10.040;2022-10-31T01:39:14;101954.63;;;13.79
14666;BMP280;7420;53.574;10.040;2022-10-31T01:41:46;101944.09;;;13.72
14666;BMP280;7420;53.574;10.040;2022-10-31T01:46:59;101944.34;;;13.77
14666;BMP280;7420;53.574;10.040;2022-10-31T01:52:30;101951.34;;;13.77
14666;BMP280;7420;53.574;10.040;2022-10-31T01:55:09;101957.50;;;13.78
14666;BMP280;7420;53.574;10.040;2022-10-31T01:57:38;101956.22;;;13.74
14666;BMP280;7420;53.574;10.040;2022-10-31T02:00:07;101966.97;;;13.80
14666;BMP280;7420;53.574;10.040;2022-10-31T02:02:33;101970.28;;;13.82
14666;BMP280;7420;53.574;10.040;2022-10-31T02:05:01;101976.00;;;13.79
14666;BMP280;7420;53.574;10.040;2022-10-31T02:07:36;101971.88;;;13.77
14666;BMP280;7420;53.574;10.040;2022-10-31T02:10:03;101979.72;;;13.78
14666;BMP280;7420;53.574;10.040;2022-10-31T02:12:30;101971.06;;;13.77
14666;BMP280;7420;53.574;10.040;2022-10-31T02:14:57;101975.94;;;13.67
14666;BMP280;7420;53.574;10.040;2022-10-31T02:17:23;101973.47;;;13.65
14666;BMP280;7420;53.574;10.040;2022-10-31T02:20:04;101974.69;;;13.63
14666;BMP280;7420;53.574;10.040;2022-10-31T02:22:41;101980.03;;;13.63
14666;BMP280;7420;53.574;10.040;2022-10-31T02:28:42;101985.59;;;13.61
14666;BMP280;7420;53.574;10.040;2022-10-31T02:34:48;101986.97;;;13.51
14666;BMP280;7420;53.574;10.040;2022-10-31T02:42:48;102006.09;;;13.54
14666;BMP280;7420;53.574;10.040;2022-10-31T02:45:28;101995.19;;;13.56
14666;BMP280;7420;53.574;10.040;2022-10-31T02:47:58;102001.13;;;13.51
14666;BMP280;7420;53.574;10.040;2022-10-31T02:50:28;101998.47;;;13.51
14666;BMP280;7420;53.574;10.040;2022-10-31T02:52:54;101999.69;;;13.49
14666;BMP280;7420;53.574;10.040;2022-10-31T02:57:48;101993.13;;;13.51
14666;BMP280;7420;53.574;10.040;2022-10-31T03:00:14;101992.25;;;13.44
14666;BMP280;7420;53.574;10.040;2022-10-31T03:05:32;102006.63;;;13.43
14666;BMP280;7420;53.574;10.040;2022-10-31T03:08:08;102000.47;;;13.43
14666;BMP280;7420;53.574;10.040;2022-10-31T03:11:05;102014.03;;;13.41
14666;BMP280;7420;53.574;10.040;2022-10-31T03:18:40;102015.41;;;13.31
14666;BMP280;7420;53.574;10.040;2022-10-31T03:24:06;102015.41;;;13.31
14666;BMP280;7420;53.574;10.040;2022-10-31T03:26:35;102016.63;;;13.28
14666;BMP280;7420;53.574;10.040;2022-10-31T03:29:04;102025.06;;;13.32
14666;BMP280;7420;53.574;10.040;2022-10-31T03:31:33;102020.56;;;13.32
14666;BMP280;7420;53.574;10.040;2022-10-31T03:34:01;102028.75;;;13.31
14666;BMP280;7420;53.574;10.040;2022-10-31T03:36:30;102028.88;;;13.23
14666;BMP280;7420;53.574;10.040;2022-10-31T03:38:56;102023.53;;;13.23
14666;BMP280;7420;53.574;10.040;2022-10-31T03:41:25;102037.75;;;13.23
14666;BMP280;7420;53.574;10.040;2022-10-31T03:43:57;102037.28;;;13.20
14666;BMP280;7420;53.574;10.040;2022-10-31T03:46:23;102042.06;;;13.24
14666;BMP280;7420;53.574;10.040;2022-10-31T03:48:49;102042.19;;;13.16
14666;BMP280;7420;53.574;10.040;2022-10-31T03:54:09;102044.66;;;13.18
14666;BMP280;7420;53.574;10.040;2022-10-31T03:56:49;102052.03;;;13.16
14666;BMP280;7420;53.574;10.040;2022-10-31T03:59:24;102056.16;;;13.12
14666;BMP280;7420;53.574;10.040;2022-10-31T04:01:55;102057.78;;;13.13
14666;BMP280;7420;53.574;10.040;2022-10-31T04:04:21;102069.66;;;13.10
14666;BMP280;7420;53.574;10.040;2022-10-31T04:06:48;102069.25;;;13.07
14666;BMP280;7420;53.574;10.040;2022-10-31T04:09:14;102079.16;;;13.13
14666;BMP280;7420;53.574;10.040;2022-10-31T04:11:45;102074.19;;;13.10
14666;BMP280;7420;53.574;10.040;2022-10-31T04:14:11;102083.84;;;13.11
14666;BMP280;7420;53.574;10.040;2022-10-31T04:16:39;102076.66;;;13.11
14666;BMP280;7420;53.574;10.040;2022-10-31T04:19:06;102085.50;;;13.12
14666;BMP280;7420;53.574;10.040;2022-10-31T04:21:31;102084.03;;;13.09
14666;BMP280;7420;53.574;10.040;2022-10-31T04:23:57;102086.28;;;13.06
14666;BMP280;7420;53.574;10.040;2022-10-31T04:26:22;102084.41;;;13.06
14666;BMP280;7420;53.574;10.040;2022-10-31T04:28:48;102088.19;;;13.12
14666;BMP280;7420;53.574;10.040;2022-10-31T04:31:14;102087.53;;;13.10
14666;BMP280;7420;53.574;10.040;2022-10-31T04:33:39;102088.47;;;13.02
14666;BMP280;7420;53.574;10.040;2022-10-31T04:36:04;102092.63;;;13.05
14666;BMP280;7420;53.574;10.040;2022-10-31T04:38:30;102085.25;;;13.07
14666;BMP280;7420;53.574;10.040;2022-10-31T04:40:55;102087.28;;;13.05
14666;BMP280;7420;53.574;10.040;2022-10-31T04:43:21;102082.75;;;13.05
14666;BMP280;7420;53.574;10.040;2022-10-31T04:45:46;102089.56;;;13.08
14666;BMP280;7420;53.574;10.040;2022-10-31T04:48:11;102090.59;;;13.07
14666;BMP280;7420;53.574;10.040;2022-10-31T04:50:37;102088.94;;;13.06
14666;BMP280;7420;53.574;10.040;2022-10-31T04:53:02;102093.25;;;13.07
14666;BMP280;7420;53.574;10.040;2022-10-31T04:55:27;102099.03;;;13.10
14666;BMP280;7420;53.574;10.040;2022-10-31T04:57:53;102095.56;;;13.10
14666;BMP280;7420;53.574;10.040;2022-10-31T05:00:21;102091.78;;;13.04
14666;BMP280;7420;53.574;10.040;2022-10-31T05:02:51;102097.59;;;13.08
14666;BMP280;7420;53.574;10.040;2022-10-31T05:05:19;102095.09;;;13.06
14666;BMP280;7420;53.574;10.040;2022-10-31T05:07:46;102101.28;;;13.07
14666;BMP280;7420;53.574;10.040;2022-10-31T05:10:15;102094.28;;;13.06
14666;BMP280;7420;53.574;10.040;2022-10-31T05:12:51;102091.78;;;13.04
14666;BMP280;7420;53.574;10.040;2022-10-31T05:15:18;102098.59;;;13.07
14666;BMP280;7420;53.574;10.040;2022-10-31T05:17:44;102097.59;;;13.08
14666;BMP280;7420;53.574;10.040;2022-10-31T05:20:10;102097.75;;;13.06
14666;BMP280;7420;53.574;10.040;2022-10-31T05:22:36;102110.84;;;13.01
14666;BMP280;7420;53.574;10.040;2022-10-31T05:25:02;102104.72;;;13.01
14666;BMP280;7420;53.574;10.040;2022-10-31T05:27:27;102098.09;;;12.97
14666;BMP280;7420;53.574;10.040;2022-10-31T05:29:53;102105.34;;;13.03
14666;BMP280;7420;53.574;10.040;2022-10-31T05:32:18;102108.81;;;13.03
14666;BMP280;7420;53.574;10.040;2022-10-31T05:34:43;102101.66;;;13.04
14666;BMP280;7420;53.574;10.040;2022-10-31T05:37:08;102115.56;;;12.99
14666;BMP280;7420;53.574;10.040;2022-10-31T05:39:34;102110.47;;;13.04
14666;BMP280;7420;53.574;10.040;2022-10-31T05:41:59;102097.97;;;13.05
14666;BMP280;7420;53.574;10.040;2022-10-31T05:44:24;102102.09;;;13.07
14666;BMP280;7420;53.574;10.040;2022-10-31T05:46:50;102090.97;;;13.04
14666;BMP280;7420;53.574;10.040;2022-10-31T05:49:15;102089.69;;;13.00
14666;BMP280;7420;53.574;10.040;2022-10-31T05:51:42;102099.41;;;13.07
14666;BMP280;7420;53.574;10.040;2022-10-31T05:54:07;102099.75;;;12.98
14666;BMP280;7420;53.574;10.040;2022-10-31T05:56:33;102110.31;;;13.06
14666;BMP280;7420;53.574;10.040;2022-10-31T05:58:58;102101.44;;;13.05
14666;BMP280;7420;53.574;10.040;2022-10-31T06:01:23;102101.44;;;13.05
14666;BMP280;7420;53.574;10.040;2022-10-31T06:03:48;102104.50;;;13.02
14666;BMP280;7420;53.574;10.040;2022-10-31T06:06:14;102104.44;;;12.96
14666;BMP280;7420;53.574;10.040;2022-10-31T06:08:40;102112.88;;;12.99
14666;BMP280;7420;53.574;10.040;2022-10-31T06:11:05;102128.09;;;12.99
14666;BMP280;7420;53.574;10.040;2022-10-31T06:13:30;102122.13;;;12.97
14666;BMP280;7420;53.574;10.040;2022-10-31T06:15:56;102120.09;;;12.99
14666;BMP280;7420;53.574;10.040;2022-10-31T06:18:21;102119.72;;;13.02
14666;BMP280;7420;53.574;10.040;2022-10-31T06:20:46;102123.00;;;13.04
14666;BMP280;7420;53.574;10.040;2022-10-31T06:23:12;102126.31;;;13.06
14666;BMP280;7420;53.574;10.040;2022-10-31T06:25:37;102130.81;;;13.05
14666;BMP280;7420;53.574;10.040;2022-10-31T06:28:02;102131.66;;;13.06
14666;BMP280;7420;53.574;10.040;2022-10-31T06:30:28;102137.38;;;13.03
14666;BMP280;7420;53.574;10.040;2022-10-31T06:32:54;102140.41;;;13.00
14666;BMP280;7420;53.574;10.040;2022-10-31T06:35:19;102132.03;;;13.03
14666;BMP280;7420;53.574;10.040;2022-10-31T06:37:51;102124.28;;;13.08
14666;BMP280;7420;53.574;10.040;2022-10-31T06:40:17;102121.66;;;13.14
14666;BMP280;7420;53.574;10.040;2022-10-31T06:42:42;102138.13;;;13.18
14666;BMP280;7420;53.574;10.040;2022-10-31T06:45:08;102146.72;;;13.13
14666;BMP280;7420;53.574;10.040;2022-10-31T06:47:33;102151.84;;;13.15
14666;BMP280;7420;53.574;10.040;2022-10-31T06:49:58;102146.50;;;13.15
14666;BMP280;7420;53.574;10.040;2022-10-31T06:52:23;102141.63;;;13.18
14666;BMP280;7420;53.574;10.040;2022-10-31T06:54:49;102149.88;;;13.23
14666;BMP280;7420;53.574;10.040;2022-10-31T06:57:14;102155.22;;;13.23
14666;BMP280;7420;53.574;10.040;2022-10-31T06:59:39;102170.78;;;13.20
14666;BMP280;7420;53.574;10.040;2022-10-31T07:02:05;102166.72;;;13.24
14666;BMP280;7420;53.574;10.040;2022-10-31T07:04:30;102167.94;;;13.21
14666;BMP280;7420;53.574;10.040;2022-10-31T07:06:55;102173.72;;;13.25
14666;BMP280;7420;53.574;10.040;2022-10-31T07:09:20;102172.44;;;13.21
14666;BMP280;7420;53.574;10.040;2022-10-31T07:11:46;102180.97;;;13.10
14666;BMP280;7420;53.574;10.040;2022-10-31T07:14:11;102179.56;;;13.14
14666;BMP280;7420;53.574;10.040;2022-10-31T07:16:37;102188.19;;;12.95
14666;BMP280;7420;53.574;10.040;2022-10-31T07:19:02;102185.34;;;12.96
14666;BMP280;7420;53.574;10.040;2022-10-31T07:21:27;102201.25;;;12.90
14666;BMP280;7420;53.574;10.040;2022-10-31T07:23:52;102194.81;;;12.99
14666;BMP280;7420;53.574;10.040;2022-10-31T07:26:18;102193.59;;;13.01
14666;BMP280;7420;53.574;10.040;2022-10-31T07:28:45;102194.44;;;13.02
14666;BMP280;7420;53.574;10.040;2022-10-31T07:31:11;102197.63;;;13.12
14666;BMP280;7420;53.574;10.040;2022-10-31T07:33:36;102201.97;;;13.13
14666;BMP280;7420;53.574;10.040;2022-10-31T07:36:01;102197.56;;;13.05
14666;BMP280;7420;53.574;10.040;2022-10-31T07:38:27;102202.25;;;13.03
14666;BMP280;7420;53.574;10.040;2022-10-31T07:40:52;102200.44;;;12.89
14666;BMP280;7420;53.574;10.040;2022-10-31T07:43:18;102206.31;;;12.85
14666;BMP280;7420;53.574;10.040;2022-10-31T07:45:43;102204.66;;;12.84
14666;BMP280;7420;53.574;10.040;2022-10-31T07:48:09;102204.66;;;12.84
14666;BMP280;7420;53.574;10.040;2022-10-31T07:50:34;102213.53;;;12.84
14666;BMP280;7420;53.574;10.040;2022-10-31T07:55:28;102227.03;;;12.83
14666;BMP280;7420;53.574;10.040;2022-10-31T07:58:01;102217.25;;;12.90
14666;BMP280;7420;53.574;10.040;2022-10-31T08:00:27;102218.94;;;12.91
14666;BMP280;7420;53.574;10.040;2022-10-31T08:02:59;102208.28;;;12.91
14666;BMP280;7420;53.574;10.040;2022-10-31T08:05:25;102209.13;;;12.91
14666;BMP280;7420;53.574;10.040;2022-10-31T08:07:50;102205.59;;;12.91
14666;BMP280;7420;53.574;10.040;2022-10-31T08:10:16;102204.50;;;13.00
14666;BMP280;7420;53.574;10.040;2022-10-31T08:12:41;102210.72;;;13.07
14666;BMP280;7420;53.574;10.040;2022-10-31T08:15:07;102210.00;;;12.98
14666;BMP280;7420;53.574;10.040;2022-10-31T08:17:35;102208.59;;;13.02
14666;BMP280;7420;53.574;10.040;2022-10-31T08:20:01;102213.88;;;13.17
14666;BMP280;7420;53.574;10.040;2022-10-31T08:22:26;102209.19;;;13.19
14666;BMP280;7420;53.574;10.040;2022-10-31T08:24:51;102205.25;;;13.15
14666;BMP280;7420;53.574;10.040;2022-10-31T08:27:17;102200.75;;;13.15
14666;BMP280;7420;53.574;10.040;2022-10-31T08:29:42;102195.19;;;13.17
14666;BMP280;7420;53.574;10.040;2022-10-31T08:32:07;102209.19;;;13.19
14666;BMP280;7420;53.574;10.040;2022-10-31T08:34:33;102210.72;;;13.28
14666;BMP280;7420;53.574;10.040;2022-10-31T08:36:58;102218.78;;;13.34
14666;BMP280;7420;53.574;10.040;2022-10-31T08:39:23;102212.78;;;13.47
14666;BMP280;7420;53.574;10.040;2022-10-31T08:41:49;102221.97;;;13.44
14666;BMP280;7420;53.574;10.040;2022-10-31T08:44:15;102221.16;;;13.44
14666;BMP280;7420;53.574;10.040;2022-10-31T08:46:41;102225.97;;;13.55
14666;BMP280;7420;53.574;10.040;2022-10-31T08:49:06;102222.91;;;13.58
14666;BMP280;7420;53.574;10.040;2022-10-31T08:51:31;102224.28;;;13.47
14666;BMP280;7420;53.574;10.040;2022-10-31T08:53:57;102211.13;;;13.46
14666;BMP280;7420;53.574;10.040;2022-10-31T08:56:22;102216.25;;;13.47
14666;BMP280;7420;53.574;10.040;2022-10-31T08:58:48;102218.28;;;13.45
14666;BMP280;7420;53.574;10.040;2022-10-31T09:01:14;102214.56;;;13.40
14666;BMP280;7420;53.574;10.040;2022-10-31T09:03:39;102215.44;;;13.47
14666;BMP280;7420;53.574;10.040;2022-10-31T09:06:04;102212.81;;;13.53
14666;BMP280;7420;53.574;10.040;2022-10-31T09:08:33;102216.31;;;13.54
14666;BMP280;7420;53.574;10.040;2022-10-31T09:10:59;102215.44;;;13.47
14666;BMP280;7420;53.574;10.040;2022-10-31T09:13:24;102210.66;;;13.42
14666;BMP280;7420;53.574;10.040;2022-10-31T09:15:50;102209.59;;;13.37
14666;BMP280;7420;53.574;10.040;2022-10-31T09:18:18;102213.16;;;13.44
14666;BMP280;7420;53.574;10.040;2022-10-31T09:20:44;102210.53;;;13.50
14666;BMP280;7420;53.574;10.040;2022-10-31T09:23:13;102202.81;;;13.62
14666;BMP280;7420;53.574;10.040;2022-10-31T09:25:39;102199.00;;;13.71
14666;BMP280;7420;53.574;10.040;2022-10-31T09:28:06;102199.50;;;13.80
14666;BMP280;7420;53.574;10.040;2022-10-31T09:30:33;102205.47;;;13.82
14666;BMP280;7420;53.574;10.040;2022-10-31T09:33:01;102201.16;;;13.81
14666;BMP280;7420;53.574;10.040;2022-10-31T09:35:28;102203.59;;;13.83
14666;BMP280;7420;53.574;10.040;2022-10-31T09:37:57;102197.47;;;13.62
14666;BMP280;7420;53.574;10.040;2022-10-31T09:40:34;102198.22;;;13.77
14666;BMP280;7420;53.574;10.040;2022-10-31T09:43:25;102197.69;;;13.87
14666;BMP280;7420;53.574;10.040;2022-10-31T09:46:49;102195.47;;;13.97
14666;BMP280;7420;53.574;10.040;2022-10-31T09:54:40;102224.69;;;13.72
14666;BMP280;7420;53.574;10.040;2022-10-31T09:57:12;102224.19;;;13.62
14666;BMP280;7420;53.574;10.040;2022-10-31T09:59:39;102222.03;;;13.72
14666;BMP280;7420;53.574;10.040;2022-10-31T10:02:46;102233.00;;;13.83
14666;BMP280;7420;53.574;10.040;2022-10-31T10:05:17;102228.59;;;13.96
14666;BMP280;7420;53.574;10.040;2022-10-31T10:10:37;102230.41;;;13.89
14666;BMP280;7420;53.574;10.040;2022-10-31T10:18:27;102216.50;;;14.28
14666;BMP280;7420;53.574;10.040;2022-10-31T10:21:15;102214.41;;;14.23
14666;BMP280;7420;53.574;10.040;2022-10-31T10:26:21;102223.91;;;14.32
14666;BMP280;7420;53.574;10.040;2022-10-31T10:28:54;102219.81;;;14.30
14666;BMP280;7420;53.574;10.040;2022-10-31T10:31:28;102216.06;;;14.24
14666;BMP280;7420;53.574;10.040;2022-10-31T10:33:59;102214.81;;;14.20
14666;BMP280;7420;53.574;10.040;2022-10-31T10:36:32;102213.56;;;14.16
14666;BMP280;7420;53.574;10.040;2022-10-31T10:39:09;102218.63;;;14.39
14666;BMP280;7420;53.574;10.040;2022-10-31T10:41:38;102217.06;;;14.57
14666;BMP280;7420;53.574;10.040;2022-10-31T10:44:08;102200.09;;;14.91
14666;BMP280;7420;53.574;10.040;2022-10-31T10:46:51;102193.00;;;15.36
14666;BMP280;7420;53.574;10.040;2022-10-31T10:49:44;102204.16;;;15.40
14666;BMP280;7420;53.574;10.040;2022-10-31T10:55:09;102196.88;;;15.21
14666;BMP280;7420;53.574;10.040;2022-10-31T11:00:30;102188.41;;;14.98
14666;BMP280;7420;53.574;10.040;2022-10-31T11:02:56;102189.66;;;15.02
14666;BMP280;7420;53.574;10.040;2022-10-31T11:07:59;102191.28;;;15.03
14666;BMP280;7420;53.574;10.040;2022-10-31T11:10:25;102183.03;;;15.04
14666;BMP280;7420;53.574;10.040;2022-10-31T11:13:21;102189.31;;;15.37
14666;BMP280;7420;53.574;10.040;2022-10-31T11:15:57;102186.88;;;15.49
14666;BMP280;7420;53.574;10.040;2022-10-31T11:18:30;102176.31;;;15.86
14666;BMP280;7420;53.574;10.040;2022-10-31T11:20:58;102174.03;;;15.90
14666;BMP280;7420;53.574;10.040;2022-10-31T11:23:25;102174.28;;;15.69
14666;BMP280;7420;53.574;10.040;2022-10-31T11:28:19;102165.94;;;15.12
14666;BMP280;7420;53.574;10.040;2022-10-31T11:30:53;102166.16;;;15.17
14666;BMP280;7420;53.574;10.040;2022-10-31T11:33:44;102159.59;;;15.26
14666;BMP280;7420;53.574;10.040;2022-10-31T11:36:31;102156.25;;;15.11
14666;BMP280;7420;53.574;10.040;2022-10-31T11:38:58;102165.81;;;15.26
14666;BMP280;7420;53.574;10.040;2022-10-31T11:41:27;102160.06;;;15.36
14666;BMP280;7420;53.574;10.040;2022-10-31T11:43:56;102176.13;;;15.36
14666;BMP280;7420;53.574;10.040;2022-10-31T11:46:32;102176.66;;;15.12
14666;BMP280;7420;53.574;10.040;2022-10-31T11:48:58;102178.50;;;14.98
14666;BMP280;7420;53.574;10.040;2022-10-31T11:51:26;102174.78;;;14.93
14666;BMP280;7420;53.574;10.040;2022-10-31T11:53:55;102169.84;;;14.90
14666;BMP280;7420;53.574;10.040;2022-10-31T11:56:22;102163.97;;;14.61
14666;BMP280;7420;53.574;10.040;2022-10-31T11:59:03;102160.25;;;14.55
14666;BMP280;7420;53.574;10.040;2022-10-31T12:01:31;102154.28;;;14.53
14666;BMP280;7420;53.574;10.040;2022-10-31T12:04:07;102154.50;;;14.65
14666;BMP280;7420;53.574;10.040;2022-10-31T12:06:35;102149.66;;;14.88
14666;BMP280;7420;53.574;10.040;2022-10-31T12:09:01;102148.28;;;15.30
14666;BMP280;7420;53.574;10.040;2022-10-31T12:16:57;102136.91;;;18.16
14666;BMP280;7420;53.574;10.040;2022-10-31T12:23:05;102144.22;;;16.30
14666;BMP280;7420;53.574;10.040;2022-10-31T12:31:24;102144.38;;;15.39
14666;BMP280;7420;53.574;10.040;2022-10-31T12:34:03;102125.22;;;15.42
14666;BMP280;7420;53.574;10.040;2022-10-31T12:41:58;102129.53;;;15.50
14666;BMP280;7420;53.574;10.040;2022-10-31T12:50:08;102147.56;;;14.83
14666;BMP280;7420;53.574;10.040;2022-10-31T12:52:48;102144.25;;;14.68
14666;BMP280;7420;53.574;10.040;2022-10-31T12:58:26;102134.41;;;14.94
14666;BMP280;7420;53.574;10.040;2022-10-31T13:01:14;102135.59;;;14.73
14666;BMP280;7420;53.574;10.040;2022-10-31T13:03:46;102129.63;;;14.71
14666;BMP280;7420;53.574;10.040;2022-10-31T13:06:18;102121.00;;;14.88
14666;BMP280;7420;53.574;10.040;2022-10-31T13:08:55;102119.63;;;15.83
14666;BMP280;7420;53.574;10.040;2022-10-31T13:11:24;102110.56;;;15.38
14666;BMP280;7420;53.574;10.040;2022-10-31T13:14:30;102109.13;;;15.42
14666;BMP280;7420;53.574;10.040;2022-10-31T13:16:59;102110.16;;;15.54
14666;BMP280;7420;53.574;10.040;2022-10-31T13:19:30;102111.59;;;15.50
14666;BMP280;7420;53.574;10.040;2022-10-31T13:22:02;102116.78;;;15.39
14666;BMP280;7420;53.574;10.040;2022-10-31T13:24:41;102113.03;;;15.33
14666;BMP280;7420;53.574;10.040;2022-10-31T13:29:54;102103.13;;;15.08
14666;BMP280;7420;53.574;10.040;2022-10-31T13:32:21;102094.66;;;14.85
14666;BMP280;7420;53.574;10.040;2022-10-31T13:34:53;102090.25;;;16.01
14666;BMP280;7420;53.574;10.040;2022-10-31T13:37:28;102087.81;;;20.11
14666;BMP280;7420;53.574;10.040;2022-10-31T13:40:24;102081.84;;;23.14
14666;BMP280;7420;53.574;10.040;2022-10-31T13:45:25;102067.03;;;23.62
14666;BMP280;7420;53.574;10.040;2022-10-31T13:50:39;102041.84;;;26.46
14666;BMP280;7420;53.574;10.040;2022-10-31T13:53:20;102025.78;;;26.44
14666;BMP280;7420;53.574;10.040;2022-10-31T13:55:48;102024.97;;;25.85
14666;BMP280;7420;53.574;10.040;2022-10-31T13:58:28;102026.13;;;25.55
14666;BMP280;7420;53.574;10.040;2022-10-31T14:01:18;102016.31;;;25.64
14666;BMP280;7420;53.574;10.040;2022-10-31T14:03:47;102025.09;;;25.06
14666;BMP280;7420;53.574;10.040;2022-10-31T14:06:14;102015.56;;;24.73
14666;BMP280;7420;53.574;10.040;2022-10-31T14:08:47;102020.03;;;22.58
14666;BMP280;7420;53.574;10.040;2022-10-31T14:11:22;102008.84;;;21.42
14666;BMP280;7420;53.574;10.040;2022-10-31T14:13:49;102018.47;;;19.15
14666;BMP280;7420;53.574;10.040;2022-10-31T14:16:20;102008.84;;;22.02
14666;BMP280;7420;53.574;10.040;2022-10-31T14:19:07;101998.84;;;22.81
14666;BMP280;7420;53.574;10.040;2022-10-31T14:21:37;101982.44;;;22.35
14666;BMP280;7420;53.574;10.040;2022-10-31T14:24:13;101979.22;;;20.65
14666;BMP280;7420;53.574;10.040;2022-10-31T14:26:38;101980.28;;;20.48
14666;BMP280;7420;53.574;10.040;2022-10-31T14:31:41;101983.06;;;19.35
14666;BMP280;7420;53.574;10.040;2022-10-31T14:34:39;101983.78;;;17.96
14666;BMP280;7420;53.574;10.040;2022-10-31T14:37:42;101983.66;;;16.89
14666;BMP280;7420;53.574;10.040;2022-10-31T14:40:39;101976.78;;;16.68
14666;BMP280;7420;53.574;10.040;2022-10-31T14:43:22;101967.84;;;16.50
14666;BMP280;7420;53.574;10.040;2022-10-31T14:46:02;101959.16;;;16.23
14666;BMP280;7420;53.574;10.040;2022-10-31T14:51:46;101935.22;;;15.85
14666;BMP280;7420;53.574;10.040;2022-10-31T14:54:15;101925.16;;;15.74
14666;BMP280;7420;53.574;10.040;2022-10-31T14:56:58;101957.44;;;15.48
14666;BMP280;7420;53.574;10.040;2022-10-31T14:59:29;101963.84;;;15.34
14666;BMP280;7420;53.574;10.040;2022-10-31T15:02:11;101962.81;;;15.22
14666;BMP280;7420;53.574;10.040;2022-10-31T15:04:38;101958.50;;;15.21
14666;BMP280;7420;53.574;10.040;2022-10-31T15:07:10;101959.78;;;14.86
14666;BMP280;7420;53.574;10.040;2022-10-31T15:09:37;101963.06;;;14.94
14666;BMP280;7420;53.574;10.040;2022-10-31T15:12:26;101961.00;;;14.77
14666;BMP280;7420;53.574;10.040;2022-10-31T15:14:52;101947.00;;;14.75
14666;BMP280;7420;53.574;10.040;2022-10-31T15:17:18;101945.16;;;14.56
14666;BMP280;7420;53.574;10.040;2022-10-31T15:19:45;101945.16;;;14.50
14666;BMP280;7420;53.574;10.040;2022-10-31T15:22:15;101940.84;;;14.55
14666;BMP280;7420;53.574;10.040;2022-10-31T15:24:41;101955.63;;;14.25
14666;BMP280;7420;53.574;10.040;2022-10-31T15:27:13;101955.19;;;14.15
14666;BMP280;7420;53.574;10.040;2022-10-31T15:29:48;101966.91;;;14.21
14666;BMP280;7420;53.574;10.040;2022-10-31T15:32:20;101949.00;;;14.15
14666;BMP280;7420;53.574;10.040;2022-10-31T15:34:48;101942.84;;;14.14
14666;BMP280;7420;53.574;10.040;2022-10-31T15:37:16;101941.19;;;14.13
14666;BMP280;7420;53.574;10.040;2022-10-31T15:39:43;101936.78;;;13.99
14666;BMP280;7420;53.574;10.040;2022-10-31T15:42:25;101931.66;;;13.91
14666;BMP280;7420;53.574;10.040;2022-10-31T15:47:23;101926.28;;;13.85
14666;BMP280;7420;53.574;10.040;2022-10-31T15:49:56;101922.13;;;13.76
14666;BMP280;7420;53.574;10.040;2022-10-31T15:54:59;101896.47;;;13.81
14666;BMP280;7420;53.574;10.040;2022-10-31T15:57:26;101896.25;;;13.77
14666;BMP280;7420;53.574;10.040;2022-10-31T15:59:52;101896.97;;;13.58
14666;BMP280;7420;53.574;10.040;2022-10-31T16:02:23;101897.84;;;13.65